Prabhu Sakhawat — AVES — position and weather

sailwx.info

Track history (hours):
 
Tides and Currents Weather Stations Pressure Air Temp Water Temp Dewpoint Dewpoint Depression Visibility Wind Speed Wind Dir Waves Ship Positions

Prabhu Sakhawat

Last reported at 2018-May-21 13:17 UTC. Time now 2018-Jun-20 17:24 UTC.
Position N 01°14' E 103°28'.
Warning: this ship's position is 30 days out of date.

Length 225 m; draft 14.4 m.

Type: Cargo ship. MMSI: 419099500.

Date/timePositionNaut miles runAvg speedWind from/ knotsBaromVisibWave heightAir tempDewpointWater temp
2018-May-21 13:17N 01°14' E 103°28'412.1
2018-May-21 12:58N 01°13' E 103°32'612.0
2018-May-21 12:30N 01°12' E 103°37'611.4
2018-May-21 12:00N 01°09' E 103°42'611.3
2018-May-21 11:30N 01°10' E 103°48'612.3
2018-May-21 10:59N 01°13' E 103°54'4 7.5
2018-May-21 10:28N 01°15' E 103°57'1 2.4
2018-May-21 09:56N 01°17' E 103°56'0 0.1
2018-May-21 09:26N 01°17' E 103°57'0 0.1
2018-May-21 08:47N 01°17' E 103°57'0 0.0
2018-May-21 08:26N 01°17' E 103°57'0 0.1
2018-May-21 07:44N 01°17' E 103°57'0 0.0
2018-May-21 05:59N 01°17' E 103°57'0 0.0
2018-May-21 05:23N 01°17' E 103°57'0 0.0
2018-May-21 04:59N 01°17' E 103°57'0 0.0
2018-May-21 04:26N 01°17' E 103°57'0 0.0
2018-May-21 03:56N 01°17' E 103°57'0 0.0
2018-May-21 03:30N 01°17' E 103°57'0 0.1
2018-May-21 03:00N 01°17' E 103°57'11 5.6
2018-May-21 01:02N 01°17' E 104°08'0 7.8
2018-May-21 00:59N 01°17' E 104°08'510.0
2018-May-21 00:29N 01°18' E 104°13'5 9.7
2018-May-20 23:59N 01°19' E 104°18'5 9.1
2018-May-20 23:28N 01°21' E 104°22'4 9.0
2018-May-20 23:00N 01°24' E 104°25'5 9.5
2018-May-20 22:27N 01°27' E 104°29'510.2
2018-May-20 21:58N 01°30' E 104°33'  
Track history (hours):
 
Tides and Currents Weather Stations Pressure Air Temp Water Temp Dewpoint Dewpoint Depression Visibility Wind Speed Wind Dir Waves Ship Positions

Prabhu Sakhawat

Last reported at 2018-May-21 13:17 UTC. Time now 2018-Jun-20 17:24 UTC.
Position N 01°14' E 103°28'.
Warning: this ship's position is 30 days out of date.

Length 225 m; draft 14.4 m.

Type: Cargo ship. MMSI: 419099500.

Date/timePositionNaut miles runAvg speedWind from/ knotsBaromVisibWave heightAir tempDewpointWater temp
2018-May-21 13:17N 01°14' E 103°28'412.1
2018-May-21 12:58N 01°13' E 103°32'612.0
2018-May-21 12:30N 01°12' E 103°37'611.4
2018-May-21 12:00N 01°09' E 103°42'611.3
2018-May-21 11:30N 01°10' E 103°48'612.3
2018-May-21 10:59N 01°13' E 103°54'4 7.5
2018-May-21 10:28N 01°15' E 103°57'1 2.4
2018-May-21 09:56N 01°17' E 103°56'0 0.1
2018-May-21 09:26N 01°17' E 103°57'0 0.1
2018-May-21 08:47N 01°17' E 103°57'0 0.0
2018-May-21 08:26N 01°17' E 103°57'0 0.1
2018-May-21 07:44N 01°17' E 103°57'0 0.0
2018-May-21 05:59N 01°17' E 103°57'0 0.0
2018-May-21 05:23N 01°17' E 103°57'0 0.0
2018-May-21 04:59N 01°17' E 103°57'0 0.0
2018-May-21 04:26N 01°17' E 103°57'0 0.0
2018-May-21 03:56N 01°17' E 103°57'0 0.0
2018-May-21 03:30N 01°17' E 103°57'0 0.1
2018-May-21 03:00N 01°17' E 103°57'11 5.6
2018-May-21 01:02N 01°17' E 104°08'0 7.8
2018-May-21 00:59N 01°17' E 104°08'510.0
2018-May-21 00:29N 01°18' E 104°13'5 9.7
2018-May-20 23:59N 01°19' E 104°18'5 9.1
2018-May-20 23:28N 01°21' E 104°22'4 9.0
2018-May-20 23:00N 01°24' E 104°25'5 9.5
2018-May-20 22:27N 01°27' E 104°29'510.2
2018-May-20 21:58N 01°30' E 104°33'  

Dump ship's entire track history